Airfield :
LOGIN :

Register | Disclaimer

   EN    FR    IT 

 










Legend :    VFR   Marginal VFR   IFR   Intensive IFR   Very Intensive IFR
Visi :
Ceiling :
>= 8 km
>= 3000ft
5 to 8 km
1000 to 3000 ft
1500m to 5 km
500 to 1000 ft
800 to 1500m
200 to 500 ft
< 800m
< 200 ft
Symbols :   Thunderstorms  Fog  Heavy snow  Heavy precipitations  Wind > 20 kt
SIGMETs :     Misc.  Thunderstorms  Icing  Turbulence  Mountain Waves  Volcanic Ashes







- Airport Elevation : 286 ft
- IATA code : FFD


EGVA - RAF Fairford

CURRENT METAR :
  • 210303Z AUTO 21013KT 9999 CLR 13/10 A2951 RMK AO2 SLP996 $

EXPIRED METARs :
  • 210223Z AUTO 21021G29KT 9999 -DZ BKN055 13/11 A2952 RMK AO2 DZB23 SLP999 $
  • 210201Z AUTO 21016G21KT 9999 SCT021 13/11 A2952 RMK AO2 SLP999 $
  • 210151Z AUTO 21013G23KT 9999 BKN021 13/11 A2952 RMK AO2 BKN V SCT SLP999 $
  • 210056Z AUTO 22015G19KT 9999 SCT095 14/12 A2953 RMK AO2 PK WND 19029/05 RAB05E18RAB37E46 SLP003 P0000 T01380115 $
  • 210046Z AUTO 22010KT 9999 BKN090 14/12 A2953 RMK AO2 RAB05E18RAB37E46 SLP003 $
  • 210037Z AUTO 22010KT 9999 -RA FEW033 OVC090 14/12 A2953 RMK AO2 RAB05E18RAB37 SLP003 $
  • 210028Z AUTO 22012G19KT 9999 FEW014 SCT033 OVC090 14/12 A2953 RMK AO2 RAB05E18 SLP003 $
  • 210018Z AUTO 21013G24KT 9999 SCT014 SCT020 BKN033 OVC085 14/13 A2953 RMK AO2 RAB05E18 SLP003 $
  • 210005Z AUTO 20020G29KT 9999 -RA OVC013 15/13 A2954 RMK AO2 RAB05 OVC V BKN SLP006 $

Expired Forecast.
No reported NOTAMs for that airfield.
1 SIGMET reported for the London FIR (EGTT) :
 
Severe turbulence
EGTT SIGMET 01 VALID 210200/210600 EGRR
EGTT LONDON FIR SEV TURB FCST WI N4850 W00800 - N5100 W00800 - N5220 W00530 - N5340 W00530 - N5340 W00400 - N4937 W00400 - N4850 W00800 SFC/FL060 MOV E 20KT NC=



MET'MAP, your aeronautical weather chart ! - Copyright ORBIFLY December 2007 - Disclaimer

ORBIFLY MET'MAP TEAM :

Programming & Development : Alexandra Zaïnal
Concept & Development : Baudouin d'Aumeries
Co-Development & Prog : Marc-Olivier Méhu
Technical & hardware support : Manuel Goepfert

Contact : metmap@orbifly.com




SOURCES & CREDITS :

   NOAA